createdAt,value
2022-12-20T00:01:28.683Z,37.42
2022-12-20T00:03:57.435Z,36.25
2022-12-20T00:06:25.880Z,35.95
2022-12-20T00:09:01.658Z,38.15
2022-12-20T00:11:30.012Z,37.40
2022-12-20T00:13:57.558Z,38.70
2022-12-20T00:16:27.224Z,36.67
2022-12-20T00:18:57.501Z,38.72
2022-12-20T00:21:24.901Z,37.72
2022-12-20T00:23:52.681Z,36.55
2022-12-20T00:26:21.950Z,39.53
2022-12-20T00:28:49.158Z,40.80
2022-12-20T00:31:20.076Z,39.53
2022-12-20T00:33:49.402Z,40.10
2022-12-20T00:36:17.549Z,39.60
2022-12-20T00:38:47.519Z,40.22
2022-12-20T00:41:17.409Z,40.13
2022-12-20T00:43:44.559Z,41.25
2022-12-20T00:46:12.333Z,35.65
2022-12-20T00:48:39.204Z,39.47
2022-12-20T00:51:09.590Z,38.90
2022-12-20T00:53:36.910Z,38.78
2022-12-20T00:56:04.654Z,41.00
2022-12-20T00:58:33.783Z,40.38
2022-12-20T01:01:00.701Z,40.65
2022-12-20T01:03:28.231Z,37.10
2022-12-20T01:05:57.644Z,37.33
2022-12-20T01:08:26.102Z,38.20
2022-12-20T01:11:00.009Z,38.80
2022-12-20T01:13:27.661Z,36.95
2022-12-20T01:15:54.546Z,40.65
2022-12-20T01:18:21.571Z,41.08
2022-12-20T01:20:48.314Z,38.40
2022-12-20T01:23:15.026Z,41.10
2022-12-20T01:25:41.760Z,38.78
2022-12-20T01:28:08.520Z,44.35
2022-12-20T01:30:35.235Z,41.83
2022-12-20T01:33:01.929Z,43.40
2022-12-20T01:35:28.951Z,46.25
2022-12-20T01:37:55.867Z,41.30
2022-12-20T01:40:22.540Z,46.85
2022-12-20T01:42:49.166Z,42.10
2022-12-20T01:45:28.720Z,42.63
2022-12-20T01:47:57.441Z,39.95
2022-12-20T01:50:24.952Z,39.15
2022-12-20T01:52:53.191Z,39.78
2022-12-20T01:55:25.230Z,37.88
2022-12-20T01:58:00.432Z,36.67
2022-12-20T02:00:27.878Z,33.63
2022-12-20T02:02:58.821Z,34.42
2022-12-20T02:05:25.713Z,36.60
2022-12-20T02:07:55.271Z,39.88
2022-12-20T02:10:27.530Z,38.03
2022-12-20T02:13:05.836Z,36.40
2022-12-20T02:15:52.874Z,38.00
2022-12-20T02:18:28.447Z,38.80
2022-12-20T02:21:13.180Z,37.28
2022-12-20T02:23:58.502Z,37.42
2022-12-20T02:26:43.679Z,42.65
2022-12-20T02:29:22.457Z,43.97
2022-12-20T02:32:02.646Z,43.00
2022-12-20T02:34:33.042Z,41.42
2022-12-20T02:37:00.391Z,38.83
2022-12-20T02:39:30.417Z,41.92
2022-12-20T02:42:05.947Z,42.00
2022-12-20T02:44:54.705Z,40.40
2022-12-20T02:47:35.534Z,37.65
2022-12-20T02:50:04.411Z,41.90
2022-12-20T02:52:32.658Z,43.72
2022-12-20T02:55:01.296Z,41.78
2022-12-20T02:57:41.076Z,40.78
2022-12-20T03:00:15.003Z,39.53
2022-12-20T03:03:01.876Z,44.33
2022-12-20T03:05:29.268Z,39.78
2022-12-20T03:07:58.029Z,43.47
2022-12-20T03:10:25.808Z,43.80
2022-12-20T03:12:54.085Z,44.28
2022-12-20T03:15:20.801Z,46.70
2022-12-20T03:17:52.005Z,46.50
2022-12-20T03:20:18.963Z,46.00
2022-12-20T03:22:45.684Z,47.90
2022-12-20T03:25:12.475Z,46.10
2022-12-20T03:27:39.976Z,44.72
2022-12-20T03:30:07.510Z,44.17
2022-12-20T03:32:38.010Z,44.25
2022-12-20T03:35:06.241Z,44.45
2022-12-20T03:37:36.505Z,45.72
2022-12-20T03:40:06.121Z,44.47
2022-12-20T03:42:33.545Z,44.05
2022-12-20T03:45:00.551Z,43.95
2022-12-20T03:47:32.143Z,44.63
2022-12-20T03:49:59.009Z,43.90
2022-12-20T03:52:27.441Z,46.53
2022-12-20T03:54:54.227Z,44.88
2022-12-20T03:57:26.435Z,46.83
2022-12-20T03:59:55.101Z,45.42
2022-12-20T04:02:22.927Z,45.92
2022-12-20T04:04:50.262Z,46.03
2022-12-20T04:07:17.907Z,47.67
2022-12-20T04:09:46.621Z,45.67
2022-12-20T04:12:15.033Z,45.00
2022-12-20T04:14:42.716Z,44.70
2022-12-20T04:17:11.557Z,47.58
2022-12-20T04:19:39.039Z,46.35
2022-12-20T04:22:07.366Z,47.25
2022-12-20T04:24:49.126Z,46.85
2022-12-20T04:27:38.378Z,43.05
2022-12-20T04:30:07.776Z,45.00
2022-12-20T04:32:34.771Z,42.47
2022-12-20T04:35:02.072Z,45.25
2022-12-20T04:37:30.617Z,45.40
2022-12-20T04:39:58.425Z,44.60
2022-12-20T04:42:39.845Z,44.70
2022-12-20T04:45:08.317Z,45.85
2022-12-20T04:47:37.586Z,45.85
2022-12-20T04:50:07.209Z,45.97
2022-12-20T04:52:52.331Z,43.83
2022-12-20T04:55:19.264Z,46.35
2022-12-20T04:57:46.221Z,42.95
2022-12-20T05:00:15.447Z,43.83
2022-12-20T05:02:47.195Z,43.30
2022-12-20T05:05:17.486Z,40.85
2022-12-20T05:07:49.392Z,45.65
2022-12-20T05:10:18.898Z,43.10
2022-12-20T05:12:48.754Z,46.00
2022-12-20T05:15:24.427Z,46.35
2022-12-20T05:17:51.718Z,45.17
2022-12-20T05:20:18.969Z,44.60
2022-12-20T05:23:05.985Z,45.67
2022-12-20T05:26:10.171Z,44.38
2022-12-20T05:28:38.656Z,44.20
2022-12-20T05:31:06.513Z,44.28
2022-12-20T05:33:35.474Z,45.95
2022-12-20T05:36:03.825Z,44.63
2022-12-20T05:38:30.624Z,45.92
2022-12-20T05:40:58.196Z,43.95
2022-12-20T05:43:24.951Z,45.75
2022-12-20T05:45:53.312Z,45.45
2022-12-20T05:48:29.545Z,42.03
2022-12-20T05:50:56.459Z,44.28
2022-12-20T05:53:28.734Z,43.60
2022-12-20T05:55:58.853Z,43.67
2022-12-20T05:58:30.819Z,43.90
2022-12-20T06:01:07.959Z,42.80
2022-12-20T06:03:39.613Z,45.78
2022-12-20T06:06:24.757Z,43.47
2022-12-20T06:08:52.415Z,45.05
2022-12-20T06:11:30.379Z,43.60
2022-12-20T06:14:05.567Z,42.65
2022-12-20T06:16:34.387Z,44.15
2022-12-20T06:19:02.593Z,41.78
2022-12-20T06:21:32.152Z,44.42
2022-12-20T06:23:59.790Z,42.50
2022-12-20T06:26:26.628Z,41.72
2022-12-20T06:28:57.179Z,43.88
2022-12-20T06:31:30.975Z,44.75
2022-12-20T06:33:57.839Z,43.50
2022-12-20T06:36:29.138Z,44.05
2022-12-20T06:38:56.029Z,44.55
2022-12-20T06:41:22.821Z,41.13
2022-12-20T06:43:50.010Z,40.35
2022-12-20T06:46:16.954Z,43.30
2022-12-20T06:48:46.016Z,42.65
2022-12-20T06:51:13.793Z,41.65
2022-12-20T06:53:40.781Z,40.50
2022-12-20T06:56:07.744Z,42.90
2022-12-20T06:58:34.479Z,40.97
2022-12-20T07:01:01.752Z,40.17
2022-12-20T07:03:28.734Z,40.40
2022-12-20T07:05:55.903Z,41.22
2022-12-20T07:08:23.847Z,39.95
2022-12-20T07:10:52.881Z,40.90
2022-12-20T07:13:20.321Z,40.85
2022-12-20T07:15:47.103Z,41.08
2022-12-20T07:18:13.795Z,41.60
2022-12-20T07:20:40.758Z,41.58
2022-12-20T07:23:07.511Z,40.40
2022-12-20T07:25:34.345Z,39.28
2022-12-20T07:28:01.004Z,40.97
2022-12-20T07:30:27.724Z,37.90
2022-12-20T07:32:54.743Z,39.55
2022-12-20T07:35:21.509Z,42.85
2022-12-20T07:37:48.276Z,37.92
2022-12-20T07:40:16.484Z,37.42
2022-12-20T07:42:48.492Z,38.63
2022-12-20T07:45:16.275Z,41.33
2022-12-20T07:47:44.084Z,38.45
2022-12-20T07:50:11.986Z,38.38
2022-12-20T07:52:41.278Z,40.42
2022-12-20T07:55:09.354Z,36.38
2022-12-20T07:58:04.831Z,38.55
2022-12-20T08:00:32.172Z,37.47
2022-12-20T08:03:22.613Z,39.08
2022-12-20T08:05:55.327Z,36.72
2022-12-20T08:08:22.643Z,35.95
2022-12-20T08:10:50.272Z,37.10
2022-12-20T08:13:17.682Z,36.60
2022-12-20T08:15:44.753Z,38.53
2022-12-20T08:18:12.317Z,38.00
2022-12-20T08:20:40.276Z,35.63
2022-12-20T08:23:07.272Z,39.83
2022-12-20T08:25:41.187Z,37.72
2022-12-20T08:28:11.461Z,39.55
2022-12-20T08:30:38.582Z,39.60
2022-12-20T08:33:05.855Z,38.88
2022-12-20T08:35:59.455Z,37.38
2022-12-20T08:38:29.266Z,37.08
2022-12-20T08:40:57.303Z,37.30
2022-12-20T08:43:24.871Z,38.40
2022-12-20T08:45:55.663Z,37.97
2022-12-20T08:48:23.094Z,36.70
2022-12-20T08:50:58.781Z,34.55
2022-12-20T08:53:26.156Z,35.25
2022-12-20T08:55:53.375Z,35.42
2022-12-20T08:58:21.127Z,36.28
2022-12-20T09:00:47.798Z,37.38
2022-12-20T09:03:15.478Z,35.33
2022-12-20T09:05:47.317Z,35.72
2022-12-20T09:08:15.528Z,36.60
2022-12-20T09:10:44.253Z,35.20
2022-12-20T09:13:11.544Z,35.97
2022-12-20T09:15:38.467Z,36.13
2022-12-20T09:18:05.829Z,35.85
2022-12-20T09:20:33.093Z,34.58
2022-12-20T09:23:01.581Z,35.72
2022-12-20T09:25:30.218Z,36.22
2022-12-20T09:27:57.571Z,35.83
2022-12-20T09:30:24.889Z,34.80
2022-12-20T09:32:51.705Z,33.90
2022-12-20T09:35:23.019Z,35.60
2022-12-20T09:37:50.236Z,35.28
2022-12-20T09:40:24.396Z,36.28
2022-12-20T09:42:52.063Z,34.53
2022-12-20T09:45:29.617Z,34.53
2022-12-20T09:47:56.759Z,35.05
2022-12-20T09:51:22.385Z,34.15
2022-12-20T09:54:22.603Z,34.22
2022-12-20T09:57:09.562Z,34.00
2022-12-20T09:59:45.978Z,34.65
2022-12-20T10:05:42.879Z,34.05
2022-12-20T10:08:34.687Z,36.42
2022-12-20T10:11:26.719Z,36.45
2022-12-20T10:14:45.972Z,37.28
2022-12-20T10:17:45.101Z,35.50
2022-12-20T10:20:36.734Z,34.13
2022-12-20T10:23:07.659Z,34.40
2022-12-20T10:25:35.503Z,32.92
2022-12-20T10:28:12.187Z,35.25
2022-12-20T10:30:39.040Z,35.85
2022-12-20T10:33:05.902Z,36.00
2022-12-20T10:35:41.490Z,33.42
2022-12-20T10:38:12.824Z,33.65
2022-12-20T10:43:44.925Z,33.53
2022-12-20T10:46:13.707Z,33.70
2022-12-20T10:48:42.597Z,35.60
2022-12-20T10:51:16.842Z,35.17
2022-12-20T10:54:01.537Z,33.65
2022-12-20T10:56:33.618Z,34.08
2022-12-20T10:59:28.725Z,34.60
2022-12-20T11:01:55.828Z,33.58
2022-12-20T11:04:34.945Z,32.67
2022-12-20T11:07:21.562Z,33.75
2022-12-20T11:09:58.868Z,34.63
2022-12-20T11:12:25.881Z,32.85
2022-12-20T11:15:19.733Z,32.80
2022-12-20T11:17:51.603Z,35.05
2022-12-20T11:20:45.840Z,34.88
2022-12-20T11:23:30.763Z,32.45
2022-12-20T11:26:41.900Z,32.22
2022-12-20T11:29:17.766Z,31.65
2022-12-20T11:31:44.544Z,31.95
2022-12-20T11:34:44.280Z,32.65
2022-12-20T11:37:21.909Z,32.05
2022-12-20T11:40:08.281Z,34.38
2022-12-20T11:43:00.400Z,31.80
2022-12-20T11:45:57.043Z,32.22
2022-12-20T11:48:52.912Z,32.17
2022-12-20T11:51:30.494Z,31.95
2022-12-20T11:54:10.531Z,32.38
2022-12-20T11:56:45.106Z,31.60
2022-12-20T11:59:19.012Z,33.53
2022-12-20T12:01:53.663Z,32.22
2022-12-20T12:04:26.696Z,32.47
2022-12-20T12:07:12.897Z,34.78
2022-12-20T12:10:07.911Z,32.13
2022-12-20T12:12:52.990Z,32.58
2022-12-20T12:15:40.845Z,32.53
2022-12-20T12:18:29.269Z,30.05
2022-12-20T12:21:22.480Z,30.10
2022-12-20T12:24:27.525Z,31.27
2022-12-20T12:26:54.609Z,27.65
2022-12-20T12:29:23.308Z,28.63
2022-12-20T12:32:18.077Z,28.98
2022-12-20T12:35:06.116Z,30.70
2022-12-20T12:37:49.805Z,30.05
2022-12-20T12:43:16.890Z,27.75
2022-12-20T12:45:48.374Z,29.02
2022-12-20T12:48:34.507Z,28.00
2022-12-20T12:51:02.699Z,29.00
2022-12-20T12:53:45.785Z,28.42
2022-12-20T12:56:45.174Z,29.77
2022-12-20T12:59:33.904Z,29.83
2022-12-20T13:02:04.106Z,29.33
2022-12-20T13:04:52.384Z,29.25
2022-12-20T13:07:45.532Z,29.60
2022-12-20T13:10:15.327Z,29.63
2022-12-20T13:12:42.039Z,28.40
2022-12-20T13:15:22.511Z,29.17
2022-12-20T13:17:58.223Z,28.33
2022-12-20T13:20:36.468Z,29.85
2022-12-20T13:23:09.124Z,28.27
2022-12-20T13:25:38.669Z,27.95
2022-12-20T13:28:24.553Z,28.30
2022-12-20T13:30:54.346Z,27.13
2022-12-20T13:33:41.987Z,28.45
2022-12-20T13:36:11.860Z,30.13
2022-12-20T13:38:55.341Z,28.65
2022-12-20T13:41:35.695Z,28.38
2022-12-20T13:44:23.669Z,30.75
2022-12-20T13:47:03.181Z,28.40
2022-12-20T13:49:43.759Z,30.40
2022-12-20T13:52:13.467Z,30.38
2022-12-20T13:54:45.468Z,28.58
2022-12-20T13:57:29.181Z,28.48
2022-12-20T14:02:37.022Z,30.92
2022-12-20T14:05:31.252Z,32.17
2022-12-20T14:08:02.721Z,31.40
2022-12-20T14:10:31.512Z,31.65
2022-12-20T14:12:59.102Z,34.83
2022-12-20T14:15:29.134Z,33.35
2022-12-20T14:17:56.445Z,31.15
2022-12-20T14:20:30.777Z,33.05
2022-12-20T14:23:10.604Z,34.03
2022-12-20T14:25:40.396Z,32.75
2022-12-20T14:28:27.673Z,35.40
2022-12-20T14:30:55.865Z,32.92
2022-12-20T14:33:32.157Z,32.13
2022-12-20T14:36:22.279Z,28.92
2022-12-20T14:38:51.674Z,31.70
2022-12-20T14:41:38.341Z,32.63
2022-12-20T14:44:07.918Z,30.73
2022-12-20T14:46:43.583Z,31.77
2022-12-20T14:49:28.243Z,35.08
2022-12-20T14:52:12.386Z,31.38
2022-12-20T14:55:10.849Z,31.77
2022-12-20T14:57:39.598Z,32.92
2022-12-20T15:00:07.361Z,32.35
2022-12-20T15:02:42.026Z,33.40
2022-12-20T15:05:38.381Z,34.30
2022-12-20T15:08:22.638Z,33.83
2022-12-20T15:11:03.634Z,33.10
2022-12-20T15:13:38.401Z,34.08
2022-12-20T15:16:18.500Z,35.53
2022-12-20T15:18:49.126Z,34.90
2022-12-20T15:21:36.332Z,33.80
2022-12-20T15:24:08.109Z,34.90
2022-12-20T15:26:35.893Z,34.55
2022-12-20T15:29:04.448Z,34.40
2022-12-20T15:31:34.113Z,34.65
2022-12-20T15:34:03.814Z,33.30
2022-12-20T15:36:34.067Z,32.47
2022-12-20T15:39:12.579Z,33.75
2022-12-20T15:41:43.044Z,33.65
2022-12-20T15:44:22.263Z,33.75
2022-12-20T15:46:50.710Z,34.03
2022-12-20T15:49:21.332Z,35.20
2022-12-20T15:51:49.938Z,32.33
2022-12-20T15:54:37.140Z,31.90
2022-12-20T15:57:09.847Z,32.67
2022-12-20T16:02:29.212Z,31.35
2022-12-20T16:04:56.568Z,28.92
2022-12-20T16:07:24.168Z,32.03
2022-12-20T16:09:51.183Z,34.22
2022-12-20T16:12:30.084Z,32.85
2022-12-20T16:14:57.252Z,35.75
2022-12-20T16:17:24.311Z,36.30
2022-12-20T16:19:51.138Z,37.92
2022-12-20T16:22:20.279Z,38.22
2022-12-20T16:24:47.222Z,37.03
2022-12-20T16:27:14.450Z,39.17
2022-12-20T16:29:41.663Z,36.05
2022-12-20T16:32:19.981Z,39.15
2022-12-20T16:34:47.431Z,41.22
2022-12-20T16:37:14.370Z,36.35
2022-12-20T16:39:41.656Z,36.33
2022-12-20T16:42:18.120Z,39.53
2022-12-20T16:44:46.096Z,39.80
2022-12-20T16:47:14.461Z,39.28
2022-12-20T16:49:44.632Z,37.95
2022-12-20T16:52:18.833Z,39.20
2022-12-20T16:54:45.547Z,39.72
2022-12-20T16:57:12.278Z,38.90
2022-12-20T16:59:39.064Z,39.42
2022-12-20T17:02:26.601Z,41.25
2022-12-20T17:04:53.513Z,39.65
2022-12-20T17:07:20.269Z,39.13
2022-12-20T17:12:31.124Z,34.40
2022-12-20T17:14:58.079Z,35.30
2022-12-20T17:17:25.398Z,35.95
2022-12-20T17:19:52.216Z,35.45
2022-12-20T17:22:25.629Z,35.63
2022-12-20T17:27:19.344Z,32.38
2022-12-20T17:29:46.192Z,37.08
2022-12-20T17:32:24.743Z,35.40
2022-12-20T17:34:53.101Z,36.08
2022-12-20T17:37:21.656Z,35.30
2022-12-20T17:39:50.055Z,36.80
2022-12-20T17:42:17.324Z,35.85
2022-12-20T17:44:47.254Z,39.15
2022-12-20T17:47:17.004Z,35.45
2022-12-20T17:49:43.941Z,34.22
2022-12-20T17:52:15.160Z,33.72
2022-12-20T17:54:41.874Z,36.42
2022-12-20T17:57:15.986Z,36.72
2022-12-20T17:59:44.087Z,36.30
2022-12-20T18:02:42.372Z,33.92
2022-12-20T18:05:13.210Z,37.33
2022-12-20T18:07:41.095Z,35.50
2022-12-20T18:10:08.820Z,34.83
2022-12-20T18:12:37.787Z,40.33
2022-12-20T18:15:07.672Z,41.05
2022-12-20T18:17:34.802Z,41.17
2022-12-20T18:20:02.780Z,38.65
2022-12-20T18:22:34.641Z,43.08
2022-12-20T18:25:03.905Z,41.00
2022-12-20T18:27:31.573Z,42.05
2022-12-20T18:29:58.767Z,38.15
2022-12-20T18:32:27.111Z,39.05
2022-12-20T18:34:54.247Z,41.65
2022-12-20T18:37:23.147Z,39.03
2022-12-20T18:39:50.052Z,42.10
2022-12-20T18:42:16.911Z,41.05
2022-12-20T18:44:43.768Z,39.70
2022-12-20T18:47:11.569Z,39.10
2022-12-20T18:49:39.562Z,41.65
2022-12-20T18:52:06.549Z,40.15
2022-12-20T18:54:34.910Z,37.08
2022-12-20T18:57:06.186Z,36.17
2022-12-20T18:59:34.333Z,33.58
2022-12-20T19:02:03.582Z,33.85
2022-12-20T19:04:30.830Z,33.00
2022-12-20T19:06:58.905Z,35.78
2022-12-20T19:09:26.660Z,34.20
2022-12-20T19:11:57.487Z,34.85
2022-12-20T19:14:25.180Z,35.67
2022-12-20T19:16:52.143Z,33.47
2022-12-20T19:19:19.152Z,35.72
2022-12-20T19:21:45.976Z,37.22
2022-12-20T19:24:13.658Z,35.28
2022-12-20T19:26:42.353Z,40.30
2022-12-20T19:29:09.936Z,38.72
2022-12-20T19:31:38.144Z,39.47
2022-12-20T19:34:11.744Z,41.53
2022-12-20T19:36:45.940Z,39.20
2022-12-20T19:39:20.751Z,38.03
2022-12-20T19:42:15.578Z,38.08
2022-12-20T19:44:36.918Z,38.80
2022-12-20T19:47:06.688Z,40.80
2022-12-20T19:49:35.543Z,39.42
2022-12-20T19:52:03.147Z,37.47
2022-12-20T19:54:30.238Z,36.67
2022-12-20T19:57:01.233Z,38.88
2022-12-20T19:59:30.973Z,38.72
2022-12-20T20:02:03.659Z,39.75
2022-12-20T20:04:33.089Z,40.22
2022-12-20T20:07:06.208Z,38.42
2022-12-20T20:09:33.343Z,38.08
2022-12-20T20:12:07.127Z,37.00
2022-12-20T20:14:37.890Z,41.45
2022-12-20T20:17:04.773Z,38.08
2022-12-20T20:19:32.206Z,38.80
2022-12-20T20:22:03.575Z,38.17
2022-12-20T20:24:31.791Z,39.20
2022-12-20T20:26:59.782Z,37.40
2022-12-20T20:29:28.179Z,38.65
2022-12-20T20:31:56.241Z,38.08
2022-12-20T20:34:23.182Z,38.20
2022-12-20T20:36:50.149Z,39.08
2022-12-20T20:39:17.085Z,39.70
2022-12-20T20:41:44.218Z,39.72
2022-12-20T20:44:14.146Z,38.90
2022-12-20T20:46:41.043Z,37.63
2022-12-20T20:49:07.893Z,38.25
2022-12-20T20:51:35.031Z,40.25
2022-12-20T20:54:02.021Z,38.13
2022-12-20T20:56:30.338Z,36.85
2022-12-20T20:59:02.906Z,39.78
2022-12-20T21:01:33.059Z,37.97
2022-12-20T21:04:01.361Z,39.85
2022-12-20T21:06:41.012Z,38.33
2022-12-20T21:09:09.184Z,39.72
2022-12-20T21:11:37.188Z,38.92
2022-12-20T21:14:04.163Z,36.50
2022-12-20T21:16:31.101Z,36.25
2022-12-20T21:18:59.233Z,36.45
2022-12-20T21:21:27.507Z,36.53
2022-12-20T21:23:58.373Z,35.88
2022-12-20T21:26:25.633Z,36.03
2022-12-20T21:28:59.803Z,35.80
2022-12-20T21:31:29.315Z,36.42
2022-12-20T21:33:58.671Z,37.92
2022-12-20T21:36:25.912Z,36.03
2022-12-20T21:38:56.227Z,37.22
2022-12-20T21:41:25.151Z,36.85
2022-12-20T21:43:54.903Z,38.05
2022-12-20T21:46:21.806Z,36.88
2022-12-20T21:48:48.601Z,37.70
2022-12-20T21:51:19.426Z,39.88
2022-12-20T21:53:48.814Z,35.97
2022-12-20T21:56:16.066Z,37.22
2022-12-20T21:58:45.161Z,36.90
2022-12-20T22:01:14.416Z,37.20
2022-12-20T22:03:41.699Z,35.20
2022-12-20T22:06:08.636Z,37.70
2022-12-20T22:08:36.921Z,38.50
2022-12-20T22:11:09.804Z,37.35
2022-12-20T22:13:41.605Z,36.10
2022-12-20T22:16:18.006Z,36.60
2022-12-20T22:18:48.570Z,40.85
2022-12-20T22:21:16.005Z,41.80
2022-12-20T22:23:44.211Z,40.67
2022-12-20T22:26:19.402Z,43.17
2022-12-20T22:28:51.223Z,44.80
2022-12-20T22:31:20.912Z,41.35
2022-12-20T22:33:47.762Z,38.88
2022-12-20T22:36:16.120Z,36.00
2022-12-20T22:38:46.288Z,36.45
2022-12-20T22:41:24.547Z,36.45
2022-12-20T22:43:54.591Z,37.17
2022-12-20T22:49:05.596Z,36.20
2022-12-20T22:51:33.859Z,38.08
2022-12-20T22:54:00.890Z,38.72
2022-12-20T22:56:27.633Z,38.53
2022-12-20T22:58:54.304Z,37.70
2022-12-20T23:01:21.869Z,39.28
2022-12-20T23:03:49.382Z,39.58
2022-12-20T23:06:19.346Z,38.10
2022-12-20T23:08:46.602Z,40.03
2022-12-20T23:11:41.976Z,38.90
2022-12-20T23:14:33.861Z,38.90
2022-12-20T23:17:01.459Z,38.63
2022-12-20T23:19:28.797Z,38.28
2022-12-20T23:22:18.759Z,39.85
2022-12-20T23:24:46.560Z,38.47
2022-12-20T23:27:13.261Z,40.28
2022-12-20T23:29:40.670Z,41.13
2022-12-20T23:32:07.439Z,42.65
2022-12-20T23:34:35.402Z,39.75
2022-12-20T23:37:02.215Z,40.78
2022-12-20T23:39:28.931Z,41.25
2022-12-20T23:41:55.548Z,41.92
2022-12-20T23:44:22.272Z,42.95
2022-12-20T23:46:48.972Z,40.28
2022-12-20T23:49:15.723Z,40.78
2022-12-20T23:51:42.733Z,38.30
2022-12-20T23:54:11.642Z,39.83
2022-12-20T23:56:38.484Z,39.53
2022-12-20T23:59:05.147Z,40.25
